Afton, OK

2:32 PM CDT on July 04, 2015 (GMT -0500)
Grand Lake, OK - Beverly Heights, Cleora | | Change Station
CLOSE
Current Station
Personal Weather Station
Location: Afton, OK
Elevation: 781 ft
Nearby Weather Stations

Elev 781 ft 36.58 °N, 94.93 °W | Updated 15 seconds ago

Partly Cloudy
Partly Cloudy
89.4 °F
Feels Like 95 °F
N
4.7
Wind Variable Wind from North
Gusts 5.3 mph

Today
High -- | Low -- °F
--% Chance of Precip.
Yesterday
High -- | Low -- °F
Precip. -- in
6:05 AM 8:41 PM
Waning Gibbous, 90% visible
Pressure 29.98 in
Visibility 10.0 miles
Clouds Scattered Clouds 4000 ft
Scattered Clouds 4800 ft
Heat Index 95 °F
Dew Point 70 °F
Humidity 54%
Rainfall 0.00 in
Snow Depth Not available.
UV 9 out of 12
Pollen 3.00 out of 12
Air Quality Not available.
Flu Activity Not available.
METAR KGMJ 041915Z AUTO 00000KT 10SM SCT040 SCT048 31/20 A2998 RMK AO2

More Conditions Fewer Conditions

Pressure 29.98 in
Visibility 10.0 miles
Clouds Scattered Clouds 4000 ft
Scattered Clouds 4800 ft
Heat Index 95 °F
Dew Point 70 °F
Humidity 54%
Rainfall 0.00 in
Snow Depth Not available.
UV 9 out of 12
Pollen 3.00 out of 12
Air Quality Not available.
Flu Activity Not available.
METAR KGMJ 041915Z AUTO 00000KT 10SM SCT040 SCT048 31/20 A2998 RMK AO2

More Conditions Fewer Conditions

Nowcast | as of 1:38 PM CDT on July 4, 2015

At 1:35 PM...National Weather Service radars continued to detect rainshowers over portions of northwest Arkansas and far eastern Oklahoma. This activity was located from near to Cass to Christie. Movement was to the southeast at 25 miles an hour. Through 3 PM...rainshowers and a thunderstorm will be possible from north of Ozark to near Stilwell. Brief heavy rainfall will be possible along with dangerous cloud to ground lightning with any of the stronger thunderstorms.

×

10-Day Weather Forecast

×

Almanac

Astronomy

Jul. 04, 2015 Rise Set
Actual Time
Civil Twilight
Nautical Twilight
Astronomical Twilight
Moon
Length of Visible Light
Length of Day
Tomorrow will be .
, % of the Moon is Illuminated

Today's Extremes

State Highs State Lows

Community

WunderPhotos

Upload Photos

1,835,065 photos uploaded!

WunderBlogs® & News

Nearby

Air Quality

  Air Quality AQ Index Pollutant
Not available.

Snow Depth

Station Depth Elevation

Earthquake Activity

City Distance Mag. Time & Date
Minimum magnitude displayed is 2.5.

Coastal Water Temperatures

Place Temperature

Stations

Nearby Weather Stations

Station Location Temp. Windchill Dew Point Humidity Wind Precip. Elev Updated Type